Alaska Titan — WDE4789 — position and weather

sailwx.info

Track history (hours):
 
Tides and Currents Weather Stations Pressure Air Temp Water Temp Dewpoint Dewpoint Depression Visibility Wind Speed Wind Dir Waves Ship Positions

Alaska Titan

Owner: WESTERN TOWBOAT CO, Seattle, WA. More information available from US FCC via Universal Licensing System and Coast Guard Vessel Documentation Center.

Last reported at 2016-May-06 20:32 UTC. Time now 2016-May-06 20:43 UTC.
Position N 49°21' W 123°55'.

Length 40 m; draft 5.3 m.

Type: Tow > 200 m length. MMSI: 367357890.

Date/timePositionNaut miles runAvg speedWind from/ knotsBaromVisibWave heightAir tempDewpointWater temp
2016-May-06 20:32N 49°21' W 123°55'7 7.0
2016-May-06 19:33N 49°26' W 124°03'8 7.5
2016-May-06 18:33N 49°31' W 124°12'7 7.0
2016-May-06 17:33N 49°34' W 124°22'7 7.0
2016-May-06 16:33N 49°38' W 124°31'8 7.8
2016-May-06 15:33N 49°42' W 124°41'10 9.9
2016-May-06 14:33N 49°48' W 124°53'10 9.9
2016-May-06 13:33N 49°55' W 125°05'9 9.1
2016-May-06 12:33N 50°02' W 125°13'9 9.2
2016-May-06 11:33N 50°09' W 125°21'7 6.5
2016-May-06 10:32N 50°16' W 125°24'67 9.4
2016-May-06 03:24N 50°43' W 127°00'910.1
2016-May-06 02:33N 50°48' W 127°12'10 9.9
2016-May-06 01:33N 50°54' W 127°23'9 8.6
2016-May-06 00:33N 50°59' W 127°35'9 9.3
2016-May-05 23:33N 51°06' W 127°45'1010.0
2016-May-05 22:32N 51°15' W 127°53'314 9.1
2016-May-04 12:00N 55°06' W 133°48'116 9.7 240 / 121022.010.8 13.3
2016-May-04 00:00N 56°18' W 136°30'212 8.8 220 / 151017.910.8 11.1
2016-May-03 00:00N 58°36' W 141°30'48 9.6 160 / 201012.110.8 0.5 8.7
2016-May-02 19:00N 59°06' W 142°42'0 0.0 160 / 151007.027.0 0.514.4
2016-May-02 18:00N 59°06' W 142°42'55 9.1 160 / 151007.027.0 0.514.4
2016-May-02 12:00N 59°36' W 144°12'   040 / 101004.110.8 8.3
2016-Apr-30 00:00N 59°36' W 144°12'104 8.6 090 / 251016.910.8 0.5 9.4
2016-Apr-29 12:00N 59°12' W 140°54'161 8.1 180 / 151003.210.8 7.8
2016-Apr-28 16:05N 58°15' W 136°03'5 8.9
2016-Apr-28 15:33N 58°17' W 135°55'9 4.3
2016-Apr-28 13:32N 58°17' W 135°38'4 4.1
2016-Apr-28 12:28N 58°14' W 135°31'5 4.1
2016-Apr-28 11:17N 58°12' W 135°23'4 4.2
2016-Apr-28 10:24N 58°14' W 135°29'4 4.6
2016-Apr-28 09:28N 58°15' W 135°37'4 4.4
2016-Apr-28 08:33N 58°18' W 135°43'4 3.5
2016-Apr-28 07:32N 58°17' W 135°37'5 4.8
2016-Apr-28 06:28N 58°15' W 135°28'5 0.6
2016-Apr-27 22:15N 58°17' W 135°37'3 4.9
2016-Apr-27 21:33N 58°18' W 135°43'3 3.1
2016-Apr-27 20:32N 58°16' W 135°39'5 0.7
2016-Apr-27 13:11N 58°15' W 135°28'3 4.8
2016-Apr-27 12:30N 58°16' W 135°34'5 5.0
2016-Apr-27 11:33N 58°18' W 135°43'4 3.9
2016-Apr-27 10:32N 58°15' W 135°37'5 4.8
2016-Apr-27 09:33N 58°14' W 135°29'3 0.4
2016-Apr-27 02:05N 58°15' W 135°34'3 4.0
2016-Apr-27 01:15N 58°16' W 135°39'3 3.9
2016-Apr-27 00:31N 58°18' W 135°44'  
Track history (hours):
 
Tides and Currents Weather Stations Pressure Air Temp Water Temp Dewpoint Dewpoint Depression Visibility Wind Speed Wind Dir Waves Ship Positions

Alaska Titan

Owner: WESTERN TOWBOAT CO, Seattle, WA. More information available from US FCC via Universal Licensing System and Coast Guard Vessel Documentation Center.

Last reported at 2016-May-06 20:32 UTC. Time now 2016-May-06 20:43 UTC.
Position N 49°21' W 123°55'.

Length 40 m; draft 5.3 m.

Type: Tow > 200 m length. MMSI: 367357890.

Date/timePositionNaut miles runAvg speedWind from/ knotsBaromVisibWave heightAir tempDewpointWater temp
2016-May-06 20:32N 49°21' W 123°55'7 7.0
2016-May-06 19:33N 49°26' W 124°03'8 7.5
2016-May-06 18:33N 49°31' W 124°12'7 7.0
2016-May-06 17:33N 49°34' W 124°22'7 7.0
2016-May-06 16:33N 49°38' W 124°31'8 7.8
2016-May-06 15:33N 49°42' W 124°41'10 9.9
2016-May-06 14:33N 49°48' W 124°53'10 9.9
2016-May-06 13:33N 49°55' W 125°05'9 9.1
2016-May-06 12:33N 50°02' W 125°13'9 9.2
2016-May-06 11:33N 50°09' W 125°21'7 6.5
2016-May-06 10:32N 50°16' W 125°24'67 9.4
2016-May-06 03:24N 50°43' W 127°00'910.1
2016-May-06 02:33N 50°48' W 127°12'10 9.9
2016-May-06 01:33N 50°54' W 127°23'9 8.6
2016-May-06 00:33N 50°59' W 127°35'9 9.3
2016-May-05 23:33N 51°06' W 127°45'1010.0
2016-May-05 22:32N 51°15' W 127°53'314 9.1
2016-May-04 12:00N 55°06' W 133°48'116 9.7 240 / 121022.010.8 13.3
2016-May-04 00:00N 56°18' W 136°30'212 8.8 220 / 151017.910.8 11.1
2016-May-03 00:00N 58°36' W 141°30'48 9.6 160 / 201012.110.8 0.5 8.7
2016-May-02 19:00N 59°06' W 142°42'0 0.0 160 / 151007.027.0 0.514.4
2016-May-02 18:00N 59°06' W 142°42'55 9.1 160 / 151007.027.0 0.514.4
2016-May-02 12:00N 59°36' W 144°12'   040 / 101004.110.8 8.3
2016-Apr-30 00:00N 59°36' W 144°12'104 8.6 090 / 251016.910.8 0.5 9.4
2016-Apr-29 12:00N 59°12' W 140°54'161 8.1 180 / 151003.210.8 7.8
2016-Apr-28 16:05N 58°15' W 136°03'5 8.9
2016-Apr-28 15:33N 58°17' W 135°55'9 4.3
2016-Apr-28 13:32N 58°17' W 135°38'4 4.1
2016-Apr-28 12:28N 58°14' W 135°31'5 4.1
2016-Apr-28 11:17N 58°12' W 135°23'4 4.2
2016-Apr-28 10:24N 58°14' W 135°29'4 4.6
2016-Apr-28 09:28N 58°15' W 135°37'4 4.4
2016-Apr-28 08:33N 58°18' W 135°43'4 3.5
2016-Apr-28 07:32N 58°17' W 135°37'5 4.8
2016-Apr-28 06:28N 58°15' W 135°28'5 0.6
2016-Apr-27 22:15N 58°17' W 135°37'3 4.9
2016-Apr-27 21:33N 58°18' W 135°43'3 3.1
2016-Apr-27 20:32N 58°16' W 135°39'5 0.7
2016-Apr-27 13:11N 58°15' W 135°28'3 4.8
2016-Apr-27 12:30N 58°16' W 135°34'5 5.0
2016-Apr-27 11:33N 58°18' W 135°43'4 3.9
2016-Apr-27 10:32N 58°15' W 135°37'5 4.8
2016-Apr-27 09:33N 58°14' W 135°29'3 0.4
2016-Apr-27 02:05N 58°15' W 135°34'3 4.0
2016-Apr-27 01:15N 58°16' W 135°39'3 3.9
2016-Apr-27 00:31N 58°18' W 135°44'  

Dump ship's entire track history